sensor_id;sensor_type;location;lat;lon;timestamp;pressure;altitude;pressure_sealevel;temperature;humidity
6567;BME280;3317;43.994;22.878;2023-03-13T00:02:22;101521.44;;;5.44;49.04
6567;BME280;3317;43.994;22.878;2023-03-13T00:04:48;101520.66;;;5.42;49.00
6567;BME280;3317;43.994;22.878;2023-03-13T00:07:17;101514.72;;;5.36;49.45
6567;BME280;3317;43.994;22.878;2023-03-13T00:09:43;101527.31;;;5.36;49.23
6567;BME280;3317;43.994;22.878;2023-03-13T00:12:10;101523.88;;;5.34;49.91
6567;BME280;3317;43.994;22.878;2023-03-13T00:14:39;101527.53;;;5.33;49.11
6567;BME280;3317;43.994;22.878;2023-03-13T00:17:05;101516.78;;;5.33;48.61
6567;BME280;3317;43.994;22.878;2023-03-13T00:19:32;101517.72;;;5.32;48.66
6567;BME280;3317;43.994;22.878;2023-03-13T00:21:59;101527.53;;;5.33;48.63
6567;BME280;3317;43.994;22.878;2023-03-13T00:24:26;101527.53;;;5.33;48.34
6567;BME280;3317;43.994;22.878;2023-03-13T00:26:54;101529.44;;;5.31;48.01
6567;BME280;3317;43.994;22.878;2023-03-13T00:29:22;101531.34;;;5.29;48.25
6567;BME280;3317;43.994;22.878;2023-03-13T00:31:51;101530.72;;;5.25;48.21
6567;BME280;3317;43.994;22.878;2023-03-13T00:34:18;101535.22;;;5.25;49.20
6567;BME280;3317;43.994;22.878;2023-03-13T00:36:44;101541.75;;;5.20;49.35
6567;BME280;3317;43.994;22.878;2023-03-13T00:39:11;101545.41;;;5.19;49.15
6567;BME280;3317;43.994;22.878;2023-03-13T00:41:38;101535.63;;;5.18;49.33
6567;BME280;3317;43.994;22.878;2023-03-13T00:44:05;101538.59;;;5.14;49.89
6567;BME280;3317;43.994;22.878;2023-03-13T00:46:33;101531.78;;;5.08;50.32
6567;BME280;3317;43.994;22.878;2023-03-13T00:49:01;101525.84;;;5.03;50.45
6567;BME280;3317;43.994;22.878;2023-03-13T00:51:29;101519.69;;;5.01;49.61
6567;BME280;3317;43.994;22.878;2023-03-13T00:53:57;101526.25;;;4.97;49.87
6567;BME280;3317;43.994;22.878;2023-03-13T00:56:26;101527.41;;;4.92;50.38
6567;BME280;3317;43.994;22.878;2023-03-13T00:58:53;101521.25;;;4.90;49.87
6567;BME280;3317;43.994;22.878;2023-03-13T01:01:21;101517.78;;;4.88;49.96
6567;BME280;3317;43.994;22.878;2023-03-13T01:03:51;101522.19;;;4.89;50.04
6567;BME280;3317;43.994;22.878;2023-03-13T01:06:21;101520.59;;;4.87;49.98
6567;BME280;3317;43.994;22.878;2023-03-13T01:08:48;101519.16;;;4.81;50.04
6567;BME280;3317;43.994;22.878;2023-03-13T01:11:17;101513.59;;;4.84;50.32
6567;BME280;3317;43.994;22.878;2023-03-13T01:13:45;101526.34;;;4.81;50.09
6567;BME280;3317;43.994;22.878;2023-03-13T01:16:14;101514.75;;;4.80;49.91
6567;BME280;3317;43.994;22.878;2023-03-13T01:18:43;101515.59;;;4.81;49.74
6567;BME280;3317;43.994;22.878;2023-03-13T01:21:11;101516.47;;;4.81;49.88
6567;BME280;3317;43.994;22.878;2023-03-13T01:23:39;101514.16;;;4.75;50.22
6567;BME280;3317;43.994;22.878;2023-03-13T01:26:07;101515.59;;;4.81;50.04
6567;BME280;3317;43.994;22.878;2023-03-13T01:28:35;101511.28;;;4.78;50.21
6567;BME280;3317;43.994;22.878;2023-03-13T01:31:10;101513.41;;;4.73;50.59
6567;BME280;3317;43.994;22.878;2023-03-13T01:33:37;101511.00;;;4.68;50.84
6567;BME280;3317;43.994;22.878;2023-03-13T01:36:04;101512.25;;;4.62;51.20
6567;BME280;3317;43.994;22.878;2023-03-13T01:38:32;101507.94;;;4.60;50.96
6567;BME280;3317;43.994;22.878;2023-03-13T01:41:01;101509.84;;;4.58;50.92
6567;BME280;3317;43.994;22.878;2023-03-13T01:43:30;101508.41;;;4.52;51.01
6567;BME280;3317;43.994;22.878;2023-03-13T01:46:00;101520.84;;;4.53;51.01
6567;BME280;3317;43.994;22.878;2023-03-13T01:48:36;101519.94;;;4.54;50.84
6567;BME280;3317;43.994;22.878;2023-03-13T01:51:05;101531.59;;;4.53;50.50
6567;BME280;3317;43.994;22.878;2023-03-13T01:53:34;101534.28;;;4.53;49.91
6567;BME280;3317;43.994;22.878;2023-03-13T01:56:07;101530.84;;;4.51;49.82
6567;BME280;3317;43.994;22.878;2023-03-13T01:58:37;101522.78;;;4.51;50.53
6567;BME280;3317;43.994;22.878;2023-03-13T02:01:04;101533.53;;;4.51;50.76
6567;BME280;3317;43.994;22.878;2023-03-13T02:03:32;101522.03;;;4.49;50.61
6567;BME280;3317;43.994;22.878;2023-03-13T02:06:01;101531.78;;;4.50;50.64
6567;BME280;3317;43.994;22.878;2023-03-13T02:08:33;101542.94;;;4.44;50.68
6567;BME280;3317;43.994;22.878;2023-03-13T02:11:11;101543.22;;;4.39;50.76
6567;BME280;3317;43.994;22.878;2023-03-13T02:13:41;101545.97;;;4.37;50.71
6567;BME280;3317;43.994;22.878;2023-03-13T02:16:08;101539.75;;;4.37;49.87
6567;BME280;3317;43.994;22.878;2023-03-13T02:18:36;101538.03;;;4.36;49.72
6567;BME280;3317;43.994;22.878;2023-03-13T02:21:09;101479.88;;;3.91;49.72
6567;BME280;3317;43.994;22.878;2023-03-13T02:23:42;101539.06;;;4.33;50.45
6567;BME280;3317;43.994;22.878;2023-03-13T02:26:13;101547.13;;;4.33;50.47
6567;BME280;3317;43.994;22.878;2023-03-13T02:28:41;101557.09;;;4.31;50.01
6567;BME280;3317;43.994;22.878;2023-03-13T02:31:08;101562.47;;;4.31;50.42
6567;BME280;3317;43.994;22.878;2023-03-13T02:33:38;101566.19;;;4.29;50.72
6567;BME280;3317;43.994;22.878;2023-03-13T02:36:07;101580.47;;;4.29;50.58
6567;BME280;3317;43.994;22.878;2023-03-13T02:38:38;101584.19;;;4.27;50.15
6567;BME280;3317;43.994;22.878;2023-03-13T02:41:07;101583.97;;;4.15;49.79
6567;BME280;3317;43.994;22.878;2023-03-13T02:43:37;101598.66;;;4.24;49.99
6567;BME280;3317;43.994;22.878;2023-03-13T02:46:07;101606.22;;;4.17;50.24
6567;BME280;3317;43.994;22.878;2023-03-13T02:48:36;101623.75;;;4.23;50.35
6567;BME280;3317;43.994;22.878;2023-03-13T02:51:07;101631.03;;;4.21;50.36
6567;BME280;3317;43.994;22.878;2023-03-13T02:53:36;101572.28;;;3.86;50.28
6567;BME280;3317;43.994;22.878;2023-03-13T02:56:04;101647.34;;;4.18;51.23
6567;BME280;3317;43.994;22.878;2023-03-13T02:58:40;101653.03;;;4.12;51.80
6567;BME280;3317;43.994;22.878;2023-03-13T03:01:08;101660.31;;;4.09;51.94
6567;BME280;3317;43.994;22.878;2023-03-13T03:03:35;101671.16;;;4.08;50.98
6567;BME280;3317;43.994;22.878;2023-03-13T03:06:03;101676.66;;;4.05;50.73
6567;BME280;3317;43.994;22.878;2023-03-13T03:08:30;101676.78;;;4.03;51.70
6567;BME280;3317;43.994;22.878;2023-03-13T03:10:57;101673.41;;;4.00;51.76
6567;BME280;3317;43.994;22.878;2023-03-13T03:13:25;101662.94;;;3.95;51.14
6567;BME280;3317;43.994;22.878;2023-03-13T03:15:53;101668.88;;;4.00;51.30
6567;BME280;3317;43.994;22.878;2023-03-13T03:18:20;101677.88;;;3.99;51.11
6567;BME280;3317;43.994;22.878;2023-03-13T03:20:47;101691.31;;;3.99;51.02
6567;BME280;3317;43.994;22.878;2023-03-13T03:23:14;101692.25;;;3.98;51.14
6567;BME280;3317;43.994;22.878;2023-03-13T03:25:41;101681.53;;;3.98;51.95
6567;BME280;3317;43.994;22.878;2023-03-13T03:28:08;101680.75;;;3.96;51.71
6567;BME280;3317;43.994;22.878;2023-03-13T03:30:35;101687.06;;;3.95;51.72
6567;BME280;3317;43.994;22.878;2023-03-13T03:33:03;101685.69;;;3.88;51.36
6567;BME280;3317;43.994;22.878;2023-03-13T03:35:30;101691.22;;;3.85;51.87
6567;BME280;3317;43.994;22.878;2023-03-13T03:37:58;101693.06;;;3.84;51.80
6567;BME280;3317;43.994;22.878;2023-03-13T03:40:25;101690.44;;;3.83;51.92
6567;BME280;3317;43.994;22.878;2023-03-13T03:42:53;101691.41;;;3.82;51.64
6567;BME280;3317;43.994;22.878;2023-03-13T03:45:20;101685.69;;;3.72;52.43
6567;BME280;3317;43.994;22.878;2023-03-13T03:47:47;101693.31;;;3.79;52.61
6567;BME280;3317;43.994;22.878;2023-03-13T03:50:15;101697.28;;;3.72;52.88
6567;BME280;3317;43.994;22.878;2023-03-13T03:52:42;101698.22;;;3.71;52.78
6567;BME280;3317;43.994;22.878;2023-03-13T03:55:09;101714.41;;;3.70;52.36
6567;BME280;3317;43.994;22.878;2023-03-13T03:57:36;101722.59;;;3.66;52.24
6567;BME280;3317;43.994;22.878;2023-03-13T04:00:04;101648.38;;;3.19;52.75
6567;BME280;3317;43.994;22.878;2023-03-13T04:02:32;101729.09;;;3.62;52.33
6567;BME280;3317;43.994;22.878;2023-03-13T04:04:59;101730.91;;;3.62;52.37
6567;BME280;3317;43.994;22.878;2023-03-13T04:07:27;101740.00;;;3.59;52.64
6567;BME280;3317;43.994;22.878;2023-03-13T04:09:54;101745.44;;;3.58;52.99
6567;BME280;3317;43.994;22.878;2023-03-13T04:12:21;101750.97;;;3.55;53.57
6567;BME280;3317;43.994;22.878;2023-03-13T04:14:48;101752.69;;;3.56;53.04
6567;BME280;3317;43.994;22.878;2023-03-13T04:17:15;101749.22;;;3.54;53.29
6567;BME280;3317;43.994;22.878;2023-03-13T04:19:42;101754.66;;;3.52;53.72
6567;BME280;3317;43.994;22.878;2023-03-13T04:22:09;101758.22;;;3.52;53.62
6567;BME280;3317;43.994;22.878;2023-03-13T04:24:37;101751.03;;;3.53;53.38
6567;BME280;3317;43.994;22.878;2023-03-13T04:27:04;101753.81;;;3.51;52.51
6567;BME280;3317;43.994;22.878;2023-03-13T04:29:32;101769.09;;;3.49;51.86
6567;BME280;3317;43.994;22.878;2023-03-13T04:31:59;101762.88;;;3.49;52.31
6567;BME280;3317;43.994;22.878;2023-03-13T04:34:26;101750.59;;;3.45;52.68
6567;BME280;3317;43.994;22.878;2023-03-13T04:36:53;101754.06;;;3.47;52.99
6567;BME280;3317;43.994;22.878;2023-03-13T04:39:20;101748.75;;;3.45;53.42
6567;BME280;3317;43.994;22.878;2023-03-13T04:41:51;101737.09;;;3.46;52.95
6567;BME280;3317;43.994;22.878;2023-03-13T04:44:20;101734.41;;;3.46;52.70
6567;BME280;3317;43.994;22.878;2023-03-13T04:46:47;101737.81;;;3.50;52.59
6567;BME280;3317;43.994;22.878;2023-03-13T04:49:15;101738.69;;;3.50;53.72
6567;BME280;3317;43.994;22.878;2023-03-13T04:51:43;101717.97;;;3.36;54.78
6567;BME280;3317;43.994;22.878;2023-03-13T04:54:11;101742.63;;;3.43;55.15
6567;BME280;3317;43.994;22.878;2023-03-13T04:56:38;101747.22;;;3.41;55.47
6567;BME280;3317;43.994;22.878;2023-03-13T04:59:06;101743.66;;;3.41;55.49
6567;BME280;3317;43.994;22.878;2023-03-13T05:01:33;101739.16;;;3.41;55.36
6567;BME280;3317;43.994;22.878;2023-03-13T05:04:00;101747.03;;;3.44;56.47
6567;BME280;3317;43.994;22.878;2023-03-13T05:06:27;101730.50;;;3.36;57.41
6567;BME280;3317;43.994;22.878;2023-03-13T05:08:54;101749.88;;;3.41;57.36
6567;BME280;3317;43.994;22.878;2023-03-13T05:11:21;101747.22;;;3.41;56.28
6567;BME280;3317;43.994;22.878;2023-03-13T05:13:48;101747.03;;;3.44;55.79
6567;BME280;3317;43.994;22.878;2023-03-13T05:16:16;101754.06;;;3.47;55.76
6567;BME280;3317;43.994;22.878;2023-03-13T05:18:43;101754.50;;;3.55;56.89
6567;BME280;3317;43.994;22.878;2023-03-13T05:21:10;101750.63;;;3.61;57.71
6567;BME280;3317;43.994;22.878;2023-03-13T05:23:37;101753.41;;;3.75;60.00
6567;BME280;3317;43.994;22.878;2023-03-13T05:26:04;101741.31;;;3.84;60.28
6567;BME280;3317;43.994;22.878;2023-03-13T05:28:32;101734.38;;;3.80;59.25
6567;BME280;3317;43.994;22.878;2023-03-13T05:30:58;101738.22;;;3.92;59.39
6567;BME280;3317;43.994;22.878;2023-03-13T05:33:27;101748.69;;;3.97;58.40
6567;BME280;3317;43.994;22.878;2023-03-13T05:35:54;101735.34;;;3.95;58.62
6567;BME280;3317;43.994;22.878;2023-03-13T05:38:20;101748.41;;;4.01;58.22
6567;BME280;3317;43.994;22.878;2023-03-13T05:40:47;101746.09;;;4.11;57.12
6567;BME280;3317;43.994;22.878;2023-03-13T05:43:14;101746.69;;;4.16;55.85
6567;BME280;3317;43.994;22.878;2023-03-13T05:45:41;101747.00;;;4.26;55.46
6567;BME280;3317;43.994;22.878;2023-03-13T05:48:11;101745.53;;;4.36;54.77
6567;BME280;3317;43.994;22.878;2023-03-13T05:50:40;101754.97;;;4.44;54.18
6567;BME280;3317;43.994;22.878;2023-03-13T05:53:07;101763.34;;;4.54;54.27
6567;BME280;3317;43.994;22.878;2023-03-13T05:55:33;101763.53;;;4.67;54.03
6567;BME280;3317;43.994;22.878;2023-03-13T05:58:00;101755.09;;;4.73;54.22
6567;BME280;3317;43.994;22.878;2023-03-13T06:00:27;101758.19;;;4.81;53.81
6567;BME280;3317;43.994;22.878;2023-03-13T06:02:55;101768.28;;;4.92;53.58
6567;BME280;3317;43.994;22.878;2023-03-13T06:05:21;101766.69;;;5.04;53.43
6567;BME280;3317;43.994;22.878;2023-03-13T06:07:50;101759.81;;;5.14;53.87
6567;BME280;3317;43.994;22.878;2023-03-13T06:10:17;101751.94;;;5.26;54.50
6567;BME280;3317;43.994;22.878;2023-03-13T06:12:51;101753.19;;;5.34;53.67
6567;BME280;3317;43.994;22.878;2023-03-13T06:15:18;101764.84;;;5.49;52.88
6567;BME280;3317;43.994;22.878;2023-03-13T06:17:45;101764.28;;;5.59;52.69
6567;BME280;3317;43.994;22.878;2023-03-13T06:20:12;101754.47;;;5.72;53.24
6567;BME280;3317;43.994;22.878;2023-03-13T06:22:39;101752.94;;;5.83;53.97
6567;BME280;3317;43.994;22.878;2023-03-13T06:25:10;101753.28;;;5.91;53.04
6567;BME280;3317;43.994;22.878;2023-03-13T06:27:37;101743.69;;;6.01;53.75
6567;BME280;3317;43.994;22.878;2023-03-13T06:30:04;101737.72;;;6.11;51.30
6567;BME280;3317;43.994;22.878;2023-03-13T06:32:31;101742.59;;;6.18;50.92
6567;BME280;3317;43.994;22.878;2023-03-13T06:34:58;101748.31;;;6.27;50.57
6567;BME280;3317;43.994;22.878;2023-03-13T06:37:25;101748.78;;;6.33;50.50
6567;BME280;3317;43.994;22.878;2023-03-13T06:39:52;101753.38;;;6.46;49.90
6567;BME280;3317;43.994;22.878;2023-03-13T06:42:21;101750.81;;;6.57;49.17
6567;BME280;3317;43.994;22.878;2023-03-13T06:44:48;101755.59;;;6.67;48.56
6567;BME280;3317;43.994;22.878;2023-03-13T06:47:15;101770.63;;;6.84;48.47
6567;BME280;3317;43.994;22.878;2023-03-13T06:49:42;101772.38;;;6.98;48.63
6567;BME280;3317;43.994;22.878;2023-03-13T06:52:08;101784.59;;;7.16;48.65
6567;BME280;3317;43.994;22.878;2023-03-13T06:54:35;101779.13;;;7.31;48.23
6567;BME280;3317;43.994;22.878;2023-03-13T06:57:02;101776.75;;;7.52;48.23
6567;BME280;3317;43.994;22.878;2023-03-13T06:59:31;101779.44;;;7.65;48.03
6567;BME280;3317;43.994;22.878;2023-03-13T07:01:58;101778.13;;;7.84;48.07
6567;BME280;3317;43.994;22.878;2023-03-13T07:04:25;101789.31;;;8.03;51.67
6567;BME280;3317;43.994;22.878;2023-03-13T07:06:52;101791.66;;;8.21;50.93
6567;BME280;3317;43.994;22.878;2023-03-13T07:09:18;101798.50;;;8.38;49.76
6567;BME280;3317;43.994;22.878;2023-03-13T07:11:45;101802.16;;;8.50;47.16
6567;BME280;3317;43.994;22.878;2023-03-13T07:14:13;101800.03;;;8.67;46.82
6567;BME280;3317;43.994;22.878;2023-03-13T07:16:41;101809.91;;;8.79;46.87
6567;BME280;3317;43.994;22.878;2023-03-13T07:19:08;101811.47;;;8.95;47.50
6567;BME280;3317;43.994;22.878;2023-03-13T07:21:35;101816.72;;;9.21;48.82
6567;BME280;3317;43.994;22.878;2023-03-13T07:24:03;101814.06;;;9.43;47.81
6567;BME280;3317;43.994;22.878;2023-03-13T07:26:30;101821.22;;;9.56;46.31
6567;BME280;3317;43.994;22.878;2023-03-13T07:28:57;101816.94;;;9.76;47.31
6567;BME280;3317;43.994;22.878;2023-03-13T07:31:25;101802.78;;;9.84;46.12
6567;BME280;3317;43.994;22.878;2023-03-13T07:33:54;101811.91;;;10.06;46.65
6567;BME280;3317;43.994;22.878;2023-03-13T07:36:22;101822.25;;;10.23;45.52
6567;BME280;3317;43.994;22.878;2023-03-13T07:38:50;101810.13;;;10.39;45.13
6567;BME280;3317;43.994;22.878;2023-03-13T07:41:18;101816.50;;;10.61;44.80
6567;BME280;3317;43.994;22.878;2023-03-13T07:43:45;101819.41;;;10.80;45.55
6567;BME280;3317;43.994;22.878;2023-03-13T07:46:14;101810.59;;;10.99;44.50
6567;BME280;3317;43.994;22.878;2023-03-13T07:48:43;101798.75;;;11.22;44.98
6567;BME280;3317;43.994;22.878;2023-03-13T07:51:13;101794.13;;;11.34;45.10
6567;BME280;3317;43.994;22.878;2023-03-13T07:53:41;101812.28;;;11.64;45.09
6567;BME280;3317;43.994;22.878;2023-03-13T07:56:10;101804.06;;;11.76;41.94
6567;BME280;3317;43.994;22.878;2023-03-13T07:58:38;101794.50;;;11.81;39.50
6567;BME280;3317;43.994;22.878;2023-03-13T08:01:09;101804.94;;;12.07;40.34
6567;BME280;3317;43.994;22.878;2023-03-13T08:03:37;101793.84;;;12.20;39.83
6567;BME280;3317;43.994;22.878;2023-03-13T08:06:06;101792.44;;;12.36;39.15
6567;BME280;3317;43.994;22.878;2023-03-13T08:08:35;101793.63;;;12.63;38.67
6567;BME280;3317;43.994;22.878;2023-03-13T08:11:04;101794.50;;;12.73;37.26
6567;BME280;3317;43.994;22.878;2023-03-13T08:13:32;101801.50;;;12.95;39.09
6567;BME280;3317;43.994;22.878;2023-03-13T08:16:04;101804.38;;;13.14;39.30
6567;BME280;3317;43.994;22.878;2023-03-13T08:18:31;101803.38;;;13.15;35.93
6567;BME280;3317;43.994;22.878;2023-03-13T08:21:03;101790.63;;;13.15;36.21
6567;BME280;3317;43.994;22.878;2023-03-13T08:23:31;101796.78;;;13.17;36.07
6567;BME280;3317;43.994;22.878;2023-03-13T08:26:03;101794.31;;;13.34;38.78
6567;BME280;3317;43.994;22.878;2023-03-13T08:28:30;101791.59;;;13.44;35.85
6567;BME280;3317;43.994;22.878;2023-03-13T08:30:57;101780.13;;;13.50;36.05
6567;BME280;3317;43.994;22.878;2023-03-13T08:33:24;101788.13;;;13.51;33.87
6567;BME280;3317;43.994;22.878;2023-03-13T08:35:51;101773.06;;;13.57;35.41
6567;BME280;3317;43.994;22.878;2023-03-13T08:38:18;101780.28;;;13.86;38.85
6567;BME280;3317;43.994;22.878;2023-03-13T08:40:45;101777.66;;;13.94;34.53
6567;BME280;3317;43.994;22.878;2023-03-13T08:43:13;101784.94;;;14.04;34.78
6567;BME280;3317;43.994;22.878;2023-03-13T08:45:40;101776.09;;;14.20;36.77
6567;BME280;3317;43.994;22.878;2023-03-13T08:48:07;101772.38;;;14.39;38.07
6567;BME280;3317;43.994;22.878;2023-03-13T08:50:34;101768.75;;;14.85;37.87
6567;BME280;3317;43.994;22.878;2023-03-13T08:53:01;101758.75;;;14.93;36.30
6567;BME280;3317;43.994;22.878;2023-03-13T08:55:28;101767.81;;;14.94;35.68
6567;BME280;3317;43.994;22.878;2023-03-13T08:57:55;101769.41;;;14.78;34.80
6567;BME280;3317;43.994;22.878;2023-03-13T09:00:24;101767.25;;;14.54;34.23
6567;BME280;3317;43.994;22.878;2023-03-13T09:02:51;101750.47;;;14.31;34.94
6567;BME280;3317;43.994;22.878;2023-03-13T09:05:18;101750.78;;;14.28;35.91
6567;BME280;3317;43.994;22.878;2023-03-13T09:07:45;101747.47;;;14.06;34.99
6567;BME280;3317;43.994;22.878;2023-03-13T09:10:12;101744.13;;;13.84;34.42
6567;BME280;3317;43.994;22.878;2023-03-13T09:12:39;101745.50;;;13.70;34.35
6567;BME280;3317;43.994;22.878;2023-03-13T09:15:07;101730.22;;;13.49;34.28
6567;BME280;3317;43.994;22.878;2023-03-13T09:17:37;101741.56;;;13.45;34.45
6567;BME280;3317;43.994;22.878;2023-03-13T09:20:05;101735.47;;;13.23;34.31
6567;BME280;3317;43.994;22.878;2023-03-13T09:22:33;101725.88;;;13.09;34.29
6567;BME280;3317;43.994;22.878;2023-03-13T09:25:00;101687.66;;;12.91;35.89
6567;BME280;3317;43.994;22.878;2023-03-13T09:27:26;101705.16;;;13.46;36.70
6567;BME280;3317;43.994;22.878;2023-03-13T09:29:54;101716.16;;;13.92;35.29
6567;BME280;3317;43.994;22.878;2023-03-13T09:32:22;101679.47;;;14.04;35.88
6567;BME280;3317;43.994;22.878;2023-03-13T09:34:50;101712.38;;;14.75;33.92
6567;BME280;3317;43.994;22.878;2023-03-13T09:37:17;101718.78;;;15.02;34.90
6567;BME280;3317;43.994;22.878;2023-03-13T09:39:46;101715.69;;;15.32;34.19
6567;BME280;3317;43.994;22.878;2023-03-13T09:42:16;101706.91;;;15.46;32.66
6567;BME280;3317;43.994;22.878;2023-03-13T09:44:45;101710.47;;;15.73;34.48
6567;BME280;3317;43.994;22.878;2023-03-13T09:47:20;101702.69;;;15.95;34.47
6567;BME280;3317;43.994;22.878;2023-03-13T09:49:52;101700.19;;;16.10;32.94
6567;BME280;3317;43.994;22.878;2023-03-13T09:52:22;101699.19;;;16.28;34.69
6567;BME280;3317;43.994;22.878;2023-03-13T09:54:53;101685.88;;;16.41;32.53
6567;BME280;3317;43.994;22.878;2023-03-13T09:57:29;101681.78;;;16.45;30.96
6567;BME280;3317;43.994;22.878;2023-03-13T09:59:59;101686.41;;;16.53;31.74
6567;BME280;3317;43.994;22.878;2023-03-13T10:02:31;101685.56;;;16.61;31.69
6567;BME280;3317;43.994;22.878;2023-03-13T10:05:07;101683.84;;;17.10;31.95
6567;BME280;3317;43.994;22.878;2023-03-13T10:07:36;101684.41;;;17.45;30.62
6567;BME280;3317;43.994;22.878;2023-03-13T10:10:05;101681.13;;;17.50;29.80
6567;BME280;3317;43.994;22.878;2023-03-13T10:12:42;101676.75;;;17.32;27.69
6567;BME280;3317;43.994;22.878;2023-03-13T10:15:27;101673.91;;;17.00;27.86
6567;BME280;3317;43.994;22.878;2023-03-13T10:17:58;101671.50;;;16.39;27.43
6567;BME280;3317;43.994;22.878;2023-03-13T10:20:27;101667.41;;;16.27;28.92
6567;BME280;3317;43.994;22.878;2023-03-13T10:22:59;101666.56;;;16.26;29.66
6567;BME280;3317;43.994;22.878;2023-03-13T10:25:29;101666.22;;;16.54;32.12
6567;BME280;3317;43.994;22.878;2023-03-13T10:27:58;101668.59;;;16.82;30.18
6567;BME280;3317;43.994;22.878;2023-03-13T10:30:28;101659.38;;;16.67;28.04
6567;BME280;3317;43.994;22.878;2023-03-13T10:32:58;101655.44;;;16.28;28.94
6567;BME280;3317;43.994;22.878;2023-03-13T10:35:32;101666.34;;;16.11;28.57
6567;BME280;3317;43.994;22.878;2023-03-13T10:38:03;101667.75;;;16.32;31.31
6567;BME280;3317;43.994;22.878;2023-03-13T10:40:31;101661.94;;;16.52;29.91
6567;BME280;3317;43.994;22.878;2023-03-13T10:43:03;101657.84;;;16.64;29.01
6567;BME280;3317;43.994;22.878;2023-03-13T10:45:32;101652.34;;;16.64;28.02
6567;BME280;3317;43.994;22.878;2023-03-13T10:48:02;101650.97;;;16.68;29.35
6567;BME280;3317;43.994;22.878;2023-03-13T10:50:34;101648.25;;;16.85;29.02
6567;BME280;3317;43.994;22.878;2023-03-13T10:53:20;101629.06;;;17.10;29.99
6567;BME280;3317;43.994;22.878;2023-03-13T10:55:48;101639.16;;;17.01;27.40
6567;BME280;3317;43.994;22.878;2023-03-13T10:58:19;101640.72;;;16.79;27.54
6567;BME280;3317;43.994;22.878;2023-03-13T11:00:48;101642.09;;;16.66;27.80
6567;BME280;3317;43.994;22.878;2023-03-13T11:03:17;101642.94;;;16.50;27.31
6567;BME280;3317;43.994;22.878;2023-03-13T11:05:54;101642.44;;;16.30;27.64
6567;BME280;3317;43.994;22.878;2023-03-13T11:08:23;101636.84;;;15.72;28.64
6567;BME280;3317;43.994;22.878;2023-03-13T11:10:58;101635.72;;;15.48;29.49
6567;BME280;3317;43.994;22.878;2023-03-13T11:13:28;101623.97;;;15.56;29.75
6567;BME280;3317;43.994;22.878;2023-03-13T11:15:57;101622.78;;;15.67;29.51
6567;BME280;3317;43.994;22.878;2023-03-13T11:18:31;101579.03;;;15.42;30.01
6567;BME280;3317;43.994;22.878;2023-03-13T11:21:03;101608.28;;;15.66;29.40
6567;BME280;3317;43.994;22.878;2023-03-13T11:23:34;101543.16;;;15.37;30.39
6567;BME280;3317;43.994;22.878;2023-03-13T11:26:10;101601.03;;;15.91;29.40
6567;BME280;3317;43.994;22.878;2023-03-13T11:28:49;101599.56;;;15.62;29.20
6567;BME280;3317;43.994;22.878;2023-03-13T11:31:21;101593.47;;;15.69;29.72
6567;BME280;3317;43.994;22.878;2023-03-13T11:33:55;101582.84;;;15.57;29.33
6567;BME280;3317;43.994;22.878;2023-03-13T11:36:32;101578.09;;;15.84;30.56
6567;BME280;3317;43.994;22.878;2023-03-13T11:39:09;101581.59;;;16.11;29.64
6567;BME280;3317;43.994;22.878;2023-03-13T11:41:51;101572.19;;;16.14;28.73
6567;BME280;3317;43.994;22.878;2023-03-13T11:44:30;101571.66;;;16.02;28.77
6567;BME280;3317;43.994;22.878;2023-03-13T11:47:15;101570.41;;;15.80;28.70
6567;BME280;3317;43.994;22.878;2023-03-13T11:50:09;101568.66;;;15.54;28.61
6567;BME280;3317;43.994;22.878;2023-03-13T11:52:57;101567.44;;;15.48;nan
6567;BME280;3317;43.994;22.878;2023-03-13T11:55:39;101535.63;;;15.30;28.99
6567;BME280;3317;43.994;22.878;2023-03-13T11:58:20;101558.31;;;15.31;29.03
6567;BME280;3317;43.994;22.878;2023-03-13T12:00:57;101555.19;;;15.09;28.75
6567;BME280;3317;43.994;22.878;2023-03-13T12:03:33;101538.91;;;14.99;29.65
6567;BME280;3317;43.994;22.878;2023-03-13T12:06:06;101549.28;;;14.87;30.32
6567;BME280;3317;43.994;22.878;2023-03-13T12:08:42;101534.31;;;15.00;30.43
6567;BME280;3317;43.994;22.878;2023-03-13T12:11:14;101528.53;;;15.03;30.13
6567;BME280;3317;43.994;22.878;2023-03-13T12:13:46;101521.13;;;14.87;29.87
6567;BME280;3317;43.994;22.878;2023-03-13T12:16:19;101526.19;;;15.16;30.47
6567;BME280;3317;43.994;22.878;2023-03-13T12:18:48;101523.69;;;15.31;29.96
6567;BME280;3317;43.994;22.878;2023-03-13T12:21:19;101525.09;;;15.52;30.47
6567;BME280;3317;43.994;22.878;2023-03-13T12:23:56;101524.44;;;15.75;31.00
6567;BME280;3317;43.994;22.878;2023-03-13T12:26:33;101512.16;;;15.87;29.65
6567;BME280;3317;43.994;22.878;2023-03-13T12:29:07;101507.72;;;15.78;29.39
6567;BME280;3317;43.994;22.878;2023-03-13T12:31:42;101522.56;;;15.84;29.65
6567;BME280;3317;43.994;22.878;2023-03-13T12:34:17;101518.66;;;15.70;29.34
6567;BME280;3317;43.994;22.878;2023-03-13T12:36:50;101510.09;;;15.56;29.58
6567;BME280;3317;43.994;22.878;2023-03-13T12:39:27;101506.63;;;15.29;29.73
6567;BME280;3317;43.994;22.878;2023-03-13T12:42:08;101507.75;;;15.10;30.41
6567;BME280;3317;43.994;22.878;2023-03-13T12:44:36;101506.59;;;14.78;30.27
6567;BME280;3317;43.994;22.878;2023-03-13T12:47:08;101503.69;;;14.53;30.89
6567;BME280;3317;43.994;22.878;2023-03-13T12:56:15;101489.91;;;14.63;32.79
6567;BME280;3317;43.994;22.878;2023-03-13T12:58:47;101484.53;;;14.71;32.13
6567;BME280;3317;43.994;22.878;2023-03-13T13:01:25;101494.91;;;14.94;32.07
6567;BME280;3317;43.994;22.878;2023-03-13T13:03:56;101488.81;;;15.09;31.69
6567;BME280;3317;43.994;22.878;2023-03-13T13:06:24;101495.00;;;15.19;31.25
6567;BME280;3317;43.994;22.878;2023-03-13T13:09:07;101491.56;;;15.25;30.86
6567;BME280;3317;43.994;22.878;2023-03-13T13:11:54;101485.81;;;15.28;31.49
6567;BME280;3317;43.994;22.878;2023-03-13T13:14:55;101481.53;;;15.34;31.25
6567;BME280;3317;43.994;22.878;2023-03-13T13:17:47;101481.09;;;15.04;30.78
6567;BME280;3317;43.994;22.878;2023-03-13T13:20:36;101471.28;;;14.76;31.20
6567;BME280;3317;43.994;22.878;2023-03-13T13:23:35;101485.06;;;14.48;31.44
6567;BME280;3317;43.994;22.878;2023-03-13T13:32:40;101472.00;;;13.81;32.83
6567;BME280;3317;43.994;22.878;2023-03-13T13:35:25;101462.75;;;13.74;33.02